sensor_id;sensor_type;location;lat;lon;timestamp;P1;durP1;ratioP1;P2;durP2;ratioP2
25609;SDS011;13479;49.044;8.716;2023-05-20T04:01:42;6.03;;;2.78;;
25609;SDS011;13479;49.044;8.716;2023-05-20T04:04:07;4.85;;;3.03;;
25609;SDS011;13479;49.044;8.716;2023-05-20T04:06:33;6.20;;;2.92;;
25609;SDS011;13479;49.044;8.716;2023-05-20T04:08:58;5.88;;;2.88;;
25609;SDS011;13479;49.044;8.716;2023-05-20T04:11:23;5.88;;;2.70;;
25609;SDS011;13479;49.044;8.716;2023-05-20T04:13:48;5.63;;;2.90;;
25609;SDS011;13479;49.044;8.716;2023-05-20T04:16:14;4.65;;;2.90;;
25609;SDS011;13479;49.044;8.716;2023-05-20T04:18:39;5.57;;;3.03;;
25609;SDS011;13479;49.044;8.716;2023-05-20T04:21:04;4.75;;;2.60;;
25609;SDS011;13479;49.044;8.716;2023-05-20T04:23:30;3.95;;;2.50;;
25609;SDS011;13479;49.044;8.716;2023-05-20T04:25:55;3.60;;;2.65;;
25609;SDS011;13479;49.044;8.716;2023-05-20T04:28:26;6.10;;;3.22;;
25609;SDS011;13479;49.044;8.716;2023-05-20T04:31:01;7.15;;;3.03;;
25609;SDS011;13479;49.044;8.716;2023-05-20T04:33:28;6.57;;;2.63;;
25609;SDS011;13479;49.044;8.716;2023-05-20T04:35:54;6.13;;;2.95;;
25609;SDS011;13479;49.044;8.716;2023-05-20T04:38:22;9.95;;;3.10;;
25609;SDS011;13479;49.044;8.716;2023-05-20T04:40:53;5.32;;;2.90;;
25609;SDS011;13479;49.044;8.716;2023-05-20T04:43:18;4.18;;;2.97;;
25609;SDS011;13479;49.044;8.716;2023-05-20T04:45:44;6.25;;;2.80;;
25609;SDS011;13479;49.044;8.716;2023-05-20T04:48:09;4.40;;;2.70;;
25609;SDS011;13479;49.044;8.716;2023-05-20T04:50:35;4.47;;;2.88;;
25609;SDS011;13479;49.044;8.716;2023-05-20T04:53:01;7.88;;;3.00;;
25609;SDS011;13479;49.044;8.716;2023-05-20T04:55:27;7.22;;;2.80;;
25609;SDS011;13479;49.044;8.716;2023-05-20T04:57:52;4.57;;;3.08;;
25609;SDS011;13479;49.044;8.716;2023-05-20T05:00:17;5.00;;;2.90;;
25609;SDS011;13479;49.044;8.716;2023-05-20T05:02:43;5.22;;;2.72;;
25609;SDS011;13479;49.044;8.716;2023-05-20T05:05:08;4.82;;;2.78;;
25609;SDS011;13479;49.044;8.716;2023-05-20T05:07:34;6.03;;;3.38;;
25609;SDS011;13479;49.044;8.716;2023-05-20T05:09:59;5.82;;;2.75;;
25609;SDS011;13479;49.044;8.716;2023-05-20T05:12:25;5.03;;;2.95;;
25609;SDS011;13479;49.044;8.716;2023-05-20T05:14:50;5.35;;;3.17;;
25609;SDS011;13479;49.044;8.716;2023-05-20T05:17:15;6.05;;;2.83;;
25609;SDS011;13479;49.044;8.716;2023-05-20T05:19:40;14.50;;;2.75;;
25609;SDS011;13479;49.044;8.716;2023-05-20T05:22:06;4.50;;;3.00;;
25609;SDS011;13479;49.044;8.716;2023-05-20T05:24:31;6.40;;;3.00;;
25609;SDS011;13479;49.044;8.716;2023-05-20T05:26:56;4.47;;;2.67;;
25609;SDS011;13479;49.044;8.716;2023-05-20T05:29:22;4.15;;;2.42;;
25609;SDS011;13479;49.044;8.716;2023-05-20T05:31:47;4.40;;;2.90;;
25609;SDS011;13479;49.044;8.716;2023-05-20T05:34:12;4.63;;;2.60;;
25609;SDS011;13479;49.044;8.716;2023-05-20T05:36:38;5.97;;;2.70;;
25609;SDS011;13479;49.044;8.716;2023-05-20T05:39:04;4.20;;;2.95;;
25609;SDS011;13479;49.044;8.716;2023-05-20T05:41:29;6.03;;;3.40;;
25609;SDS011;13479;49.044;8.716;2023-05-20T05:43:54;5.65;;;2.80;;
25609;SDS011;13479;49.044;8.716;2023-05-20T05:46:20;5.00;;;2.80;;
25609;SDS011;13479;49.044;8.716;2023-05-20T05:48:45;5.07;;;2.90;;
25609;SDS011;13479;49.044;8.716;2023-05-20T05:51:14;4.32;;;2.80;;
25609;SDS011;13479;49.044;8.716;2023-05-20T05:53:39;4.78;;;3.05;;
25609;SDS011;13479;49.044;8.716;2023-05-20T05:56:05;3.70;;;2.85;;
25609;SDS011;13479;49.044;8.716;2023-05-20T05:58:30;7.13;;;2.88;;
25609;SDS011;13479;49.044;8.716;2023-05-20T06:00:55;5.43;;;2.90;;
25609;SDS011;13479;49.044;8.716;2023-05-20T06:03:21;5.03;;;3.08;;
25609;SDS011;13479;49.044;8.716;2023-05-20T06:05:46;6.07;;;3.20;;
25609;SDS011;13479;49.044;8.716;2023-05-20T06:08:12;4.80;;;3.08;;
25609;SDS011;13479;49.044;8.716;2023-05-20T06:10:37;5.18;;;3.33;;
25609;SDS011;13479;49.044;8.716;2023-05-20T06:13:02;3.85;;;3.00;;
25609;SDS011;13479;49.044;8.716;2023-05-20T06:15:27;6.72;;;2.80;;
25609;SDS011;13479;49.044;8.716;2023-05-20T06:17:53;4.95;;;3.33;;
25609;SDS011;13479;49.044;8.716;2023-05-20T06:20:18;3.95;;;2.92;;
25609;SDS011;13479;49.044;8.716;2023-05-20T06:22:43;4.07;;;2.72;;
25609;SDS011;13479;49.044;8.716;2023-05-20T06:25:09;7.55;;;3.47;;
25609;SDS011;13479;49.044;8.716;2023-05-20T06:27:34;8.13;;;3.30;;
25609;SDS011;13479;49.044;8.716;2023-05-20T06:30:00;3.70;;;2.90;;
25609;SDS011;13479;49.044;8.716;2023-05-20T06:32:25;8.85;;;2.97;;
25609;SDS011;13479;49.044;8.716;2023-05-20T06:34:51;4.45;;;2.95;;
25609;SDS011;13479;49.044;8.716;2023-05-20T06:37:16;4.30;;;2.95;;
25609;SDS011;13479;49.044;8.716;2023-05-20T06:39:42;4.35;;;3.20;;
25609;SDS011;13479;49.044;8.716;2023-05-20T06:42:07;4.15;;;3.10;;
25609;SDS011;13479;49.044;8.716;2023-05-20T06:44:32;6.15;;;3.50;;
25609;SDS011;13479;49.044;8.716;2023-05-20T06:46:57;6.55;;;3.55;;
25609;SDS011;13479;49.044;8.716;2023-05-20T06:49:23;5.18;;;3.22;;
25609;SDS011;13479;49.044;8.716;2023-05-20T06:51:48;5.53;;;3.08;;
25609;SDS011;13479;49.044;8.716;2023-05-20T06:54:14;4.75;;;3.17;;
25609;SDS011;13479;49.044;8.716;2023-05-20T06:56:39;5.28;;;3.08;;
25609;SDS011;13479;49.044;8.716;2023-05-20T06:59:04;5.30;;;3.20;;
25609;SDS011;13479;49.044;8.716;2023-05-20T07:01:30;4.90;;;2.85;;
25609;SDS011;13479;49.044;8.716;2023-05-20T07:03:55;5.15;;;2.95;;
25609;SDS011;13479;49.044;8.716;2023-05-20T07:06:21;6.30;;;3.40;;
25609;SDS011;13479;49.044;8.716;2023-05-20T07:08:47;4.93;;;3.42;;
25609;SDS011;13479;49.044;8.716;2023-05-20T07:11:12;6.13;;;3.33;;
25609;SDS011;13479;49.044;8.716;2023-05-20T07:13:37;3.63;;;2.72;;
25609;SDS011;13479;49.044;8.716;2023-05-20T07:16:03;5.57;;;3.10;;
25609;SDS011;13479;49.044;8.716;2023-05-20T07:18:28;6.72;;;3.42;;
25609;SDS011;13479;49.044;8.716;2023-05-20T07:20:53;5.43;;;3.15;;
25609;SDS011;13479;49.044;8.716;2023-05-20T07:23:20;5.20;;;3.42;;
25609;SDS011;13479;49.044;8.716;2023-05-20T07:25:46;5.38;;;3.20;;
25609;SDS011;13479;49.044;8.716;2023-05-20T07:28:11;5.82;;;2.95;;
25609;SDS011;13479;49.044;8.716;2023-05-20T07:30:36;5.45;;;3.50;;
25609;SDS011;13479;49.044;8.716;2023-05-20T07:33:01;5.05;;;3.20;;
25609;SDS011;13479;49.044;8.716;2023-05-20T07:35:27;5.13;;;3.08;;
25609;SDS011;13479;49.044;8.716;2023-05-20T07:37:52;4.97;;;3.33;;
25609;SDS011;13479;49.044;8.716;2023-05-20T07:40:17;5.70;;;3.10;;
25609;SDS011;13479;49.044;8.716;2023-05-20T07:42:43;6.30;;;3.10;;
25609;SDS011;13479;49.044;8.716;2023-05-20T07:45:08;4.97;;;3.10;;
25609;SDS011;13479;49.044;8.716;2023-05-20T07:47:34;4.75;;;3.00;;
25609;SDS011;13479;49.044;8.716;2023-05-20T07:49:59;4.78;;;3.10;;
25609;SDS011;13479;49.044;8.716;2023-05-20T07:52:24;5.00;;;3.15;;
25609;SDS011;13479;49.044;8.716;2023-05-20T07:54:50;4.68;;;3.45;;
25609;SDS011;13479;49.044;8.716;2023-05-20T07:57:15;6.03;;;3.10;;
25609;SDS011;13479;49.044;8.716;2023-05-20T07:59:40;5.07;;;3.20;;
25609;SDS011;13479;49.044;8.716;2023-05-20T08:02:07;6.13;;;3.10;;
25609;SDS011;13479;49.044;8.716;2023-05-20T08:04:32;3.90;;;3.00;;
25609;SDS011;13479;49.044;8.716;2023-05-20T08:06:58;4.80;;;3.15;;
25609;SDS011;13479;49.044;8.716;2023-05-20T08:09:24;7.00;;;3.13;;
25609;SDS011;13479;49.044;8.716;2023-05-20T08:11:49;4.53;;;3.50;;
25609;SDS011;13479;49.044;8.716;2023-05-20T08:14:14;4.20;;;3.33;;
25609;SDS011;13479;49.044;8.716;2023-05-20T08:16:40;5.65;;;3.00;;
25609;SDS011;13479;49.044;8.716;2023-05-20T08:19:06;6.72;;;3.20;;
25609;SDS011;13479;49.044;8.716;2023-05-20T08:21:31;5.60;;;2.85;;
25609;SDS011;13479;49.044;8.716;2023-05-20T08:23:57;4.25;;;3.28;;
25609;SDS011;13479;49.044;8.716;2023-05-20T08:26:22;5.22;;;3.15;;
25609;SDS011;13479;49.044;8.716;2023-05-20T08:28:47;5.00;;;3.10;;
25609;SDS011;13479;49.044;8.716;2023-05-20T08:31:13;3.72;;;2.80;;
25609;SDS011;13479;49.044;8.716;2023-05-20T08:33:38;4.57;;;2.83;;
25609;SDS011;13479;49.044;8.716;2023-05-20T08:36:04;4.85;;;3.25;;
25609;SDS011;13479;49.044;8.716;2023-05-20T08:38:30;4.95;;;3.00;;
25609;SDS011;13479;49.044;8.716;2023-05-20T08:40:55;6.40;;;3.30;;
25609;SDS011;13479;49.044;8.716;2023-05-20T08:43:22;5.15;;;3.03;;
25609;SDS011;13479;49.044;8.716;2023-05-20T08:45:48;4.68;;;3.25;;
25609;SDS011;13479;49.044;8.716;2023-05-20T08:48:16;4.45;;;3.15;;
25609;SDS011;13479;49.044;8.716;2023-05-20T08:50:43;4.50;;;2.85;;
25609;SDS011;13479;49.044;8.716;2023-05-20T08:53:11;6.70;;;3.15;;
25609;SDS011;13479;49.044;8.716;2023-05-20T08:55:41;3.60;;;3.03;;
25609;SDS011;13479;49.044;8.716;2023-05-20T08:58:07;4.03;;;3.00;;
25609;SDS011;13479;49.044;8.716;2023-05-20T09:00:33;5.28;;;2.95;;
25609;SDS011;13479;49.044;8.716;2023-05-20T09:02:58;3.88;;;2.83;;
25609;SDS011;13479;49.044;8.716;2023-05-20T09:05:24;5.25;;;3.00;;
25609;SDS011;13479;49.044;8.716;2023-05-20T09:07:50;5.00;;;3.20;;
25609;SDS011;13479;49.044;8.716;2023-05-20T09:10:15;4.15;;;3.00;;
25609;SDS011;13479;49.044;8.716;2023-05-20T09:12:40;3.90;;;3.10;;
25609;SDS011;13479;49.044;8.716;2023-05-20T09:15:06;4.40;;;3.20;;
25609;SDS011;13479;49.044;8.716;2023-05-20T09:17:35;4.45;;;3.20;;
25609;SDS011;13479;49.044;8.716;2023-05-20T09:20:01;3.67;;;2.53;;
25609;SDS011;13479;49.044;8.716;2023-05-20T09:22:30;3.67;;;2.90;;
25609;SDS011;13479;49.044;8.716;2023-05-20T09:24:55;7.05;;;3.20;;
25609;SDS011;13479;49.044;8.716;2023-05-20T09:27:20;6.35;;;3.47;;
25609;SDS011;13479;49.044;8.716;2023-05-20T09:29:46;5.10;;;3.17;;
25609;SDS011;13479;49.044;8.716;2023-05-20T09:32:13;4.60;;;3.20;;
25609;SDS011;13479;49.044;8.716;2023-05-20T09:34:38;6.40;;;3.78;;
25609;SDS011;13479;49.044;8.716;2023-05-20T09:37:06;6.40;;;3.38;;
25609;SDS011;13479;49.044;8.716;2023-05-20T09:39:34;6.20;;;3.40;;
25609;SDS011;13479;49.044;8.716;2023-05-20T09:42:06;5.57;;;3.33;;
25609;SDS011;13479;49.044;8.716;2023-05-20T09:44:38;5.18;;;3.63;;
25609;SDS011;13479;49.044;8.716;2023-05-20T09:47:04;6.85;;;2.95;;
25609;SDS011;13479;49.044;8.716;2023-05-20T09:49:31;7.38;;;3.50;;
25609;SDS011;13479;49.044;8.716;2023-05-20T09:51:57;6.93;;;3.35;;
25609;SDS011;13479;49.044;8.716;2023-05-20T09:54:24;8.48;;;3.80;;
25609;SDS011;13479;49.044;8.716;2023-05-20T09:56:50;4.32;;;3.15;;
25609;SDS011;13479;49.044;8.716;2023-05-20T09:59:15;4.30;;;2.88;;
25609;SDS011;13479;49.044;8.716;2023-05-20T10:01:41;8.23;;;3.53;;
25609;SDS011;13479;49.044;8.716;2023-05-20T10:04:06;5.50;;;3.33;;
25609;SDS011;13479;49.044;8.716;2023-05-20T10:14:27;6.80;;;3.50;;
25609;SDS011;13479;49.044;8.716;2023-05-20T10:17:08;7.38;;;3.40;;
25609;SDS011;13479;49.044;8.716;2023-05-20T10:19:41;4.90;;;3.50;;
25609;SDS011;13479;49.044;8.716;2023-05-20T10:22:07;7.28;;;3.50;;
25609;SDS011;13479;49.044;8.716;2023-05-20T10:27:02;7.03;;;3.38;;
25609;SDS011;13479;49.044;8.716;2023-05-20T10:29:28;8.75;;;3.05;;
25609;SDS011;13479;49.044;8.716;2023-05-20T10:31:54;5.18;;;3.60;;
25609;SDS011;13479;49.044;8.716;2023-05-20T10:34:20;4.32;;;3.53;;
25609;SDS011;13479;49.044;8.716;2023-05-20T10:39:18;5.18;;;3.50;;
25609;SDS011;13479;49.044;8.716;2023-05-20T10:41:49;5.13;;;3.22;;
25609;SDS011;13479;49.044;8.716;2023-05-20T10:44:14;5.13;;;3.15;;
25609;SDS011;13479;49.044;8.716;2023-05-20T10:46:39;4.32;;;2.95;;
25609;SDS011;13479;49.044;8.716;2023-05-20T10:49:05;5.78;;;3.13;;
25609;SDS011;13479;49.044;8.716;2023-05-20T10:51:42;13.57;;;3.17;;
25609;SDS011;13479;49.044;8.716;2023-05-20T10:54:09;5.05;;;3.22;;
25609;SDS011;13479;49.044;8.716;2023-05-20T10:56:35;4.32;;;3.22;;
25609;SDS011;13479;49.044;8.716;2023-05-20T10:59:00;4.15;;;2.75;;
25609;SDS011;13479;49.044;8.716;2023-05-20T11:01:26;5.30;;;3.60;;
25609;SDS011;13479;49.044;8.716;2023-05-20T11:03:53;10.18;;;3.00;;
25609;SDS011;13479;49.044;8.716;2023-05-20T11:06:24;8.35;;;3.40;;
25609;SDS011;13479;49.044;8.716;2023-05-20T11:08:51;6.30;;;3.72;;
25609;SDS011;13479;49.044;8.716;2023-05-20T11:11:17;7.05;;;3.55;;
25609;SDS011;13479;49.044;8.716;2023-05-20T11:13:42;9.05;;;3.60;;
25609;SDS011;13479;49.044;8.716;2023-05-20T11:16:07;5.72;;;2.88;;
25609;SDS011;13479;49.044;8.716;2023-05-20T11:18:33;4.65;;;3.30;;
25609;SDS011;13479;49.044;8.716;2023-05-20T11:20:58;5.57;;;3.13;;
25609;SDS011;13479;49.044;8.716;2023-05-20T11:23:25;4.75;;;3.28;;
25609;SDS011;13479;49.044;8.716;2023-05-20T11:25:51;6.70;;;4.13;;
25609;SDS011;13479;49.044;8.716;2023-05-20T11:28:18;4.32;;;3.30;;
25609;SDS011;13479;49.044;8.716;2023-05-20T11:30:45;5.10;;;3.45;;
25609;SDS011;13479;49.044;8.716;2023-05-20T11:33:11;4.93;;;3.70;;
25609;SDS011;13479;49.044;8.716;2023-05-20T11:35:43;5.38;;;3.55;;
25609;SDS011;13479;49.044;8.716;2023-05-20T11:38:09;5.30;;;3.70;;
25609;SDS011;13479;49.044;8.716;2023-05-20T11:40:35;5.55;;;3.45;;
25609;SDS011;13479;49.044;8.716;2023-05-20T11:43:00;5.47;;;3.70;;
25609;SDS011;13479;49.044;8.716;2023-05-20T11:45:27;4.68;;;3.50;;
25609;SDS011;13479;49.044;8.716;2023-05-20T11:48:03;4.53;;;3.53;;
25609;SDS011;13479;49.044;8.716;2023-05-20T11:50:33;4.78;;;3.75;;
25609;SDS011;13479;49.044;8.716;2023-05-20T11:53:05;4.10;;;3.50;;
25609;SDS011;13479;49.044;8.716;2023-05-20T11:55:31;5.22;;;3.38;;
25609;SDS011;13479;49.044;8.716;2023-05-20T11:57:57;5.13;;;3.65;;
25609;SDS011;13479;49.044;8.716;2023-05-20T12:00:23;6.68;;;3.65;;
25609;SDS011;13479;49.044;8.716;2023-05-20T12:02:49;9.07;;;3.65;;
25609;SDS011;13479;49.044;8.716;2023-05-20T12:05:14;5.50;;;4.15;;
25609;SDS011;13479;49.044;8.716;2023-05-20T12:07:40;8.50;;;3.72;;
25609;SDS011;13479;49.044;8.716;2023-05-20T12:10:06;7.20;;;3.58;;
25609;SDS011;13479;49.044;8.716;2023-05-20T12:12:32;4.13;;;3.35;;
25609;SDS011;13479;49.044;8.716;2023-05-20T12:14:57;4.88;;;4.00;;
25609;SDS011;13479;49.044;8.716;2023-05-20T12:17:23;9.32;;;4.40;;
25609;SDS011;13479;49.044;8.716;2023-05-20T12:19:48;6.00;;;3.75;;
25609;SDS011;13479;49.044;8.716;2023-05-20T12:22:13;5.75;;;3.92;;
25609;SDS011;13479;49.044;8.716;2023-05-20T12:24:38;5.93;;;3.60;;
25609;SDS011;13479;49.044;8.716;2023-05-20T12:27:04;5.03;;;3.50;;
25609;SDS011;13479;49.044;8.716;2023-05-20T12:29:30;5.13;;;3.33;;
25609;SDS011;13479;49.044;8.716;2023-05-20T12:31:56;7.43;;;4.30;;
25609;SDS011;13479;49.044;8.716;2023-05-20T12:34:21;4.63;;;3.15;;
25609;SDS011;13479;49.044;8.716;2023-05-20T12:36:46;5.18;;;3.75;;
25609;SDS011;13479;49.044;8.716;2023-05-20T12:39:12;6.10;;;4.05;;
25609;SDS011;13479;49.044;8.716;2023-05-20T12:41:41;4.88;;;3.67;;
25609;SDS011;13479;49.044;8.716;2023-05-20T12:44:07;4.40;;;3.33;;
25609;SDS011;13479;49.044;8.716;2023-05-20T12:46:32;5.75;;;3.88;;
25609;SDS011;13479;49.044;8.716;2023-05-20T12:48:57;5.35;;;3.75;;
25609;SDS011;13479;49.044;8.716;2023-05-20T12:51:22;6.07;;;3.63;;
25609;SDS011;13479;49.044;8.716;2023-05-20T12:53:47;4.22;;;3.50;;
25609;SDS011;13479;49.044;8.716;2023-05-20T12:56:13;6.15;;;3.53;;
25609;SDS011;13479;49.044;8.716;2023-05-20T12:58:38;4.95;;;3.70;;
25609;SDS011;13479;49.044;8.716;2023-05-20T13:01:03;7.43;;;4.28;;
25609;SDS011;13479;49.044;8.716;2023-05-20T13:03:29;5.03;;;4.07;;
25609;SDS011;13479;49.044;8.716;2023-05-20T13:05:54;8.27;;;4.22;;
25609;SDS011;13479;49.044;8.716;2023-05-20T13:08:20;8.32;;;4.38;;
25609;SDS011;13479;49.044;8.716;2023-05-20T13:10:45;6.10;;;4.13;;
25609;SDS011;13479;49.044;8.716;2023-05-20T13:13:10;7.30;;;3.80;;
25609;SDS011;13479;49.044;8.716;2023-05-20T13:15:37;6.78;;;4.35;;
25609;SDS011;13479;49.044;8.716;2023-05-20T13:18:02;9.18;;;5.60;;
25609;SDS011;13479;49.044;8.716;2023-05-20T13:20:30;7.65;;;3.15;;
25609;SDS011;13479;49.044;8.716;2023-05-20T13:22:55;6.07;;;3.30;;
25609;SDS011;13479;49.044;8.716;2023-05-20T13:25:20;5.45;;;3.78;;
25609;SDS011;13479;49.044;8.716;2023-05-20T13:27:46;6.38;;;3.92;;
25609;SDS011;13479;49.044;8.716;2023-05-20T13:30:11;5.10;;;3.85;;
25609;SDS011;13479;49.044;8.716;2023-05-20T13:32:36;6.45;;;4.10;;
25609;SDS011;13479;49.044;8.716;2023-05-20T13:35:02;11.75;;;4.07;;
25609;SDS011;13479;49.044;8.716;2023-05-20T13:37:27;5.28;;;3.97;;
25609;SDS011;13479;49.044;8.716;2023-05-20T13:39:52;4.72;;;3.60;;
25609;SDS011;13479;49.044;8.716;2023-05-20T13:42:18;6.40;;;4.22;;
25609;SDS011;13479;49.044;8.716;2023-05-20T13:44:43;5.90;;;4.22;;
25609;SDS011;13479;49.044;8.716;2023-05-20T13:47:08;5.75;;;3.97;;
25609;SDS011;13479;49.044;8.716;2023-05-20T13:49:33;6.38;;;3.88;;
25609;SDS011;13479;49.044;8.716;2023-05-20T13:51:59;6.90;;;3.95;;
25609;SDS011;13479;49.044;8.716;2023-05-20T13:54:24;8.82;;;4.03;;
25609;SDS011;13479;49.044;8.716;2023-05-20T13:56:50;6.07;;;4.28;;
25609;SDS011;13479;49.044;8.716;2023-05-20T13:59:15;6.07;;;3.97;;
25609;SDS011;13479;49.044;8.716;2023-05-20T14:01:40;4.78;;;4.22;;
25609;SDS011;13479;49.044;8.716;2023-05-20T14:04:09;16.15;;;4.30;;
25609;SDS011;13479;49.044;8.716;2023-05-20T14:06:36;5.97;;;3.53;;
25609;SDS011;13479;49.044;8.716;2023-05-20T14:09:01;5.93;;;3.88;;
25609;SDS011;13479;49.044;8.716;2023-05-20T14:11:27;5.40;;;3.65;;
25609;SDS011;13479;49.044;8.716;2023-05-20T14:13:52;6.25;;;4.20;;
25609;SDS011;13479;49.044;8.716;2023-05-20T14:16:17;7.65;;;3.80;;
25609;SDS011;13479;49.044;8.716;2023-05-20T14:18:42;6.35;;;3.92;;
25609;SDS011;13479;49.044;8.716;2023-05-20T14:21:08;14.82;;;4.25;;
25609;SDS011;13479;49.044;8.716;2023-05-20T14:23:33;5.25;;;4.05;;
25609;SDS011;13479;49.044;8.716;2023-05-20T14:25:58;5.88;;;3.80;;
25609;SDS011;13479;49.044;8.716;2023-05-20T14:28:23;5.40;;;3.83;;
25609;SDS011;13479;49.044;8.716;2023-05-20T14:30:49;5.82;;;4.07;;
25609;SDS011;13479;49.044;8.716;2023-05-20T14:33:15;6.78;;;4.55;;
25609;SDS011;13479;49.044;8.716;2023-05-20T14:35:40;6.32;;;4.60;;
25609;SDS011;13479;49.044;8.716;2023-05-20T14:38:05;7.35;;;4.25;;
25609;SDS011;13479;49.044;8.716;2023-05-20T14:40:30;7.32;;;4.10;;
25609;SDS011;13479;49.044;8.716;2023-05-20T14:42:56;6.13;;;4.40;;
25609;SDS011;13479;49.044;8.716;2023-05-20T14:45:21;5.18;;;3.92;;
25609;SDS011;13479;49.044;8.716;2023-05-20T14:47:46;9.23;;;4.50;;
25609;SDS011;13479;49.044;8.716;2023-05-20T14:50:11;6.60;;;4.22;;
25609;SDS011;13479;49.044;8.716;2023-05-20T14:52:37;5.63;;;3.72;;
25609;SDS011;13479;49.044;8.716;2023-05-20T14:55:02;5.88;;;3.83;;
25609;SDS011;13479;49.044;8.716;2023-05-20T14:57:27;5.22;;;3.75;;
25609;SDS011;13479;49.044;8.716;2023-05-20T14:59:53;7.13;;;4.00;;
25609;SDS011;13479;49.044;8.716;2023-05-20T15:02:18;5.53;;;3.67;;
25609;SDS011;13479;49.044;8.716;2023-05-20T15:04:44;6.15;;;3.63;;
25609;SDS011;13479;49.044;8.716;2023-05-20T15:07:11;7.90;;;3.95;;
25609;SDS011;13479;49.044;8.716;2023-05-20T15:09:37;5.90;;;4.07;;
25609;SDS011;13479;49.044;8.716;2023-05-20T15:12:03;5.60;;;4.10;;
25609;SDS011;13479;49.044;8.716;2023-05-20T15:14:28;5.38;;;4.00;;
25609;SDS011;13479;49.044;8.716;2023-05-20T15:16:53;6.13;;;3.90;;
25609;SDS011;13479;49.044;8.716;2023-05-20T15:19:19;6.03;;;3.75;;
25609;SDS011;13479;49.044;8.716;2023-05-20T15:21:44;5.82;;;3.90;;
25609;SDS011;13479;49.044;8.716;2023-05-20T15:24:09;6.30;;;3.28;;
25609;SDS011;13479;49.044;8.716;2023-05-20T15:26:34;8.05;;;4.32;;
25609;SDS011;13479;49.044;8.716;2023-05-20T15:29:00;6.22;;;4.55;;
25609;SDS011;13479;49.044;8.716;2023-05-20T15:31:25;5.78;;;4.20;;
25609;SDS011;13479;49.044;8.716;2023-05-20T15:33:51;5.32;;;3.95;;
25609;SDS011;13479;49.044;8.716;2023-05-20T15:36:16;6.15;;;3.80;;
25609;SDS011;13479;49.044;8.716;2023-05-20T15:38:41;6.43;;;3.78;;
25609;SDS011;13479;49.044;8.716;2023-05-20T15:41:08;6.85;;;4.55;;
25609;SDS011;13479;49.044;8.716;2023-05-20T15:43:36;5.13;;;3.47;;
25609;SDS011;13479;49.044;8.716;2023-05-20T15:46:01;6.35;;;4.07;;
25609;SDS011;13479;49.044;8.716;2023-05-20T15:48:26;6.32;;;4.40;;
25609;SDS011;13479;49.044;8.716;2023-05-20T15:50:52;7.30;;;4.45;;
25609;SDS011;13479;49.044;8.716;2023-05-20T15:53:17;6.15;;;4.32;;
25609;SDS011;13479;49.044;8.716;2023-05-20T15:55:42;5.78;;;4.38;;
25609;SDS011;13479;49.044;8.716;2023-05-20T15:58:08;6.03;;;4.00;;
25609;SDS011;13479;49.044;8.716;2023-05-20T16:00:33;7.78;;;4.32;;
25609;SDS011;13479;49.044;8.716;2023-05-20T16:02:58;5.75;;;4.32;;
25609;SDS011;13479;49.044;8.716;2023-05-20T16:05:23;5.78;;;4.93;;
25609;SDS011;13479;49.044;8.716;2023-05-20T16:07:49;6.95;;;4.63;;
25609;SDS011;13479;49.044;8.716;2023-05-20T16:10:15;6.45;;;4.55;;
25609;SDS011;13479;49.044;8.716;2023-05-20T16:12:41;9.10;;;4.35;;
25609;SDS011;13479;49.044;8.716;2023-05-20T16:15:06;6.50;;;4.30;;
25609;SDS011;13479;49.044;8.716;2023-05-20T16:17:33;6.22;;;4.65;;
25609;SDS011;13479;49.044;8.716;2023-05-20T16:19:59;14.05;;;4.88;;
25609;SDS011;13479;49.044;8.716;2023-05-20T16:22:24;8.45;;;4.72;;
25609;SDS011;13479;49.044;8.716;2023-05-20T16:24:49;6.25;;;4.25;;
25609;SDS011;13479;49.044;8.716;2023-05-20T16:27:15;5.95;;;4.40;;
25609;SDS011;13479;49.044;8.716;2023-05-20T16:29:40;5.85;;;4.22;;
25609;SDS011;13479;49.044;8.716;2023-05-20T16:32:05;5.78;;;4.55;;
25609;SDS011;13479;49.044;8.716;2023-05-20T16:34:30;5.82;;;4.47;;
25609;SDS011;13479;49.044;8.716;2023-05-20T16:36:56;7.32;;;5.22;;
25609;SDS011;13479;49.044;8.716;2023-05-20T16:39:22;10.77;;;4.50;;
25609;SDS011;13479;49.044;8.716;2023-05-20T16:41:47;7.97;;;4.28;;
25609;SDS011;13479;49.044;8.716;2023-05-20T16:44:12;6.78;;;4.80;;
25609;SDS011;13479;49.044;8.716;2023-05-20T16:46:38;7.32;;;4.53;;
25609;SDS011;13479;49.044;8.716;2023-05-20T16:49:03;8.55;;;4.47;;
25609;SDS011;13479;49.044;8.716;2023-05-20T16:51:28;6.38;;;4.75;;
25609;SDS011;13479;49.044;8.716;2023-05-20T16:53:53;9.50;;;4.72;;
25609;SDS011;13479;49.044;8.716;2023-05-20T16:56:19;7.38;;;4.40;;
25609;SDS011;13479;49.044;8.716;2023-05-20T16:58:45;6.05;;;4.47;;
25609;SDS011;13479;49.044;8.716;2023-05-20T17:01:11;7.10;;;4.85;;
25609;SDS011;13479;49.044;8.716;2023-05-20T17:03:36;6.60;;;4.63;;
25609;SDS011;13479;49.044;8.716;2023-05-20T17:06:01;7.15;;;4.90;;
25609;SDS011;13479;49.044;8.716;2023-05-20T17:08:26;7.10;;;4.68;;
25609;SDS011;13479;49.044;8.716;2023-05-20T17:10:52;8.15;;;5.00;;
25609;SDS011;13479;49.044;8.716;2023-05-20T17:13:17;6.78;;;4.78;;
25609;SDS011;13479;49.044;8.716;2023-05-20T17:15:42;9.23;;;5.05;;
25609;SDS011;13479;49.044;8.716;2023-05-20T17:18:08;8.00;;;5.43;;
25609;SDS011;13479;49.044;8.716;2023-05-20T17:20:34;9.00;;;5.38;;
25609;SDS011;13479;49.044;8.716;2023-05-20T17:22:59;6.20;;;4.78;;
25609;SDS011;13479;49.044;8.716;2023-05-20T17:25:24;9.50;;;5.20;;
25609;SDS011;13479;49.044;8.716;2023-05-20T17:27:50;7.88;;;5.32;;
25609;SDS011;13479;49.044;8.716;2023-05-20T17:30:15;7.40;;;5.13;;
25609;SDS011;13479;49.044;8.716;2023-05-20T17:32:40;8.38;;;5.30;;
25609;SDS011;13479;49.044;8.716;2023-05-20T17:35:06;7.85;;;5.47;;
25609;SDS011;13479;49.044;8.716;2023-05-20T17:37:32;9.50;;;5.70;;
25609;SDS011;13479;49.044;8.716;2023-05-20T17:39:58;10.63;;;5.47;;
25609;SDS011;13479;49.044;8.716;2023-05-20T17:42:23;8.95;;;5.40;;
25609;SDS011;13479;49.044;8.716;2023-05-20T17:44:49;8.95;;;5.80;;
25609;SDS011;13479;49.044;8.716;2023-05-20T17:47:14;7.68;;;5.18;;
25609;SDS011;13479;49.044;8.716;2023-05-20T17:49:39;8.65;;;5.80;;
25609;SDS011;13479;49.044;8.716;2023-05-20T17:52:05;6.88;;;5.55;;
25609;SDS011;13479;49.044;8.716;2023-05-20T17:54:30;8.80;;;5.85;;
25609;SDS011;13479;49.044;8.716;2023-05-20T17:56:56;10.40;;;6.18;;
25609;SDS011;13479;49.044;8.716;2023-05-20T17:59:21;10.73;;;5.93;;
25609;SDS011;13479;49.044;8.716;2023-05-20T18:01:46;8.77;;;5.38;;
25609;SDS011;13479;49.044;8.716;2023-05-20T18:04:11;7.68;;;5.60;;
25609;SDS011;13479;49.044;8.716;2023-05-20T18:06:37;8.13;;;5.60;;
25609;SDS011;13479;49.044;8.716;2023-05-20T18:09:03;7.55;;;5.35;;
25609;SDS011;13479;49.044;8.716;2023-05-20T18:11:29;9.90;;;5.57;;
25609;SDS011;13479;49.044;8.716;2023-05-20T18:13:59;8.02;;;5.68;;
25609;SDS011;13479;49.044;8.716;2023-05-20T18:16:25;7.97;;;5.68;;
25609;SDS011;13479;49.044;8.716;2023-05-20T18:18:52;7.10;;;5.35;;
25609;SDS011;13479;49.044;8.716;2023-05-20T18:21:17;7.10;;;5.50;;
25609;SDS011;13479;49.044;8.716;2023-05-20T18:23:44;10.32;;;5.57;;
25609;SDS011;13479;49.044;8.716;2023-05-20T18:26:10;10.48;;;5.60;;
25609;SDS011;13479;49.044;8.716;2023-05-20T18:28:35;7.35;;;5.47;;
25609;SDS011;13479;49.044;8.716;2023-05-20T18:31:00;8.25;;;5.97;;
25609;SDS011;13479;49.044;8.716;2023-05-20T18:33:25;7.60;;;5.82;;
25609;SDS011;13479;49.044;8.716;2023-05-20T18:35:51;8.98;;;5.82;;
25609;SDS011;13479;49.044;8.716;2023-05-20T18:38:17;8.02;;;5.93;;
25609;SDS011;13479;49.044;8.716;2023-05-20T18:40:43;7.60;;;5.85;;
25609;SDS011;13479;49.044;8.716;2023-05-20T18:43:08;9.73;;;6.20;;
25609;SDS011;13479;49.044;8.716;2023-05-20T18:45:33;11.85;;;5.50;;
25609;SDS011;13479;49.044;8.716;2023-05-20T18:47:58;7.70;;;6.05;;
25609;SDS011;13479;49.044;8.716;2023-05-20T18:50:24;10.23;;;6.10;;
25609;SDS011;13479;49.044;8.716;2023-05-20T18:52:49;9.38;;;6.32;;